createdAt,value
2018-08-12T00:01:42.686Z,2.93
2018-08-12T00:04:12.870Z,3.70
2018-08-12T00:06:42.749Z,3.77
2018-08-12T00:09:12.881Z,2.70
2018-08-12T00:11:42.948Z,3.30
2018-08-12T00:14:13.217Z,2.83
2018-08-12T00:16:43.250Z,3.37
2018-08-12T00:19:13.465Z,3.10
2018-08-12T00:21:46.443Z,3.50
2018-08-12T00:24:16.482Z,3.47
2018-08-12T00:26:46.460Z,3.55
2018-08-12T00:29:16.472Z,3.45
2018-08-12T00:31:53.094Z,3.75
2018-08-12T00:34:23.022Z,3.50
2018-08-12T00:36:53.031Z,3.40
2018-08-12T00:39:23.137Z,2.97
2018-08-12T00:41:53.010Z,3.22
2018-08-12T00:44:22.981Z,3.00
2018-08-12T00:46:52.959Z,8.53
2018-08-12T00:49:23.196Z,11.88
2018-08-12T00:51:53.232Z,10.43
2018-08-12T00:54:23.181Z,6.13
2018-08-12T00:56:53.048Z,6.77
2018-08-12T00:59:23.327Z,7.53
2018-08-12T01:01:54.261Z,7.80
2018-08-12T01:04:25.147Z,7.58
2018-08-12T01:06:55.080Z,6.27
2018-08-12T01:09:24.917Z,6.47
2018-08-12T01:11:54.986Z,12.17
2018-08-12T01:14:24.976Z,13.30
2018-08-12T01:16:54.837Z,9.03
2018-08-12T01:19:24.725Z,7.80
2018-08-12T01:21:54.455Z,7.47
2018-08-12T01:24:24.270Z,6.50
2018-08-12T01:26:54.400Z,5.70
2018-08-12T01:29:24.262Z,6.00
2018-08-12T01:31:54.077Z,6.10
2018-08-12T01:34:23.879Z,6.00
2018-08-12T01:36:53.782Z,5.47
2018-08-12T01:39:23.645Z,5.12
2018-08-12T01:41:53.566Z,4.63
2018-08-12T01:44:23.850Z,4.47
2018-08-12T01:46:53.680Z,4.83
2018-08-12T01:49:24.658Z,4.10
2018-08-12T01:51:54.412Z,4.15
2018-08-12T01:54:24.483Z,4.77
2018-08-12T01:56:54.597Z,3.80
2018-08-12T01:59:24.651Z,3.57
2018-08-12T02:01:54.526Z,3.93
2018-08-12T02:04:24.461Z,3.70
2018-08-12T02:06:54.982Z,3.72
2018-08-12T02:09:24.901Z,3.80
2018-08-12T02:11:54.804Z,4.00
2018-08-12T02:14:24.621Z,3.80
2018-08-12T02:16:54.550Z,3.27
2018-08-12T02:19:24.585Z,3.63
2018-08-12T02:21:54.408Z,4.33
2018-08-12T02:24:24.293Z,3.60
2018-08-12T02:26:54.285Z,3.60
2018-08-12T02:29:24.273Z,3.47
2018-08-12T02:31:54.115Z,3.63
2018-08-12T02:34:24.132Z,3.72
2018-08-12T02:36:54.431Z,3.35
2018-08-12T02:39:24.211Z,3.53
2018-08-12T02:41:54.417Z,4.63
2018-08-12T02:44:24.465Z,3.67
2018-08-12T02:46:54.628Z,3.60
2018-08-12T02:49:24.552Z,3.40
2018-08-12T02:51:54.602Z,2.97
2018-08-12T02:54:24.884Z,2.80
2018-08-12T02:56:54.823Z,3.42
2018-08-12T02:59:24.906Z,3.07
2018-08-12T03:01:54.726Z,3.37
2018-08-12T03:04:24.636Z,3.60
2018-08-12T03:07:01.069Z,3.07
2018-08-12T03:09:31.103Z,3.13
2018-08-12T03:12:01.093Z,3.40
2018-08-12T03:14:30.977Z,3.40
2018-08-12T03:17:00.801Z,3.00
2018-08-12T03:19:30.670Z,3.30
2018-08-12T03:22:00.585Z,3.23
2018-08-12T03:24:30.432Z,3.03
2018-08-12T03:27:00.453Z,3.13
2018-08-12T03:29:30.311Z,3.60
2018-08-12T03:32:00.121Z,3.47
2018-08-12T03:34:30.049Z,3.20
2018-08-12T03:36:59.922Z,3.23
2018-08-12T03:39:30.655Z,3.07
2018-08-12T03:42:00.413Z,3.10
2018-08-12T03:44:30.421Z,3.37
2018-08-12T03:47:00.375Z,3.00
2018-08-12T03:49:30.342Z,3.80
2018-08-12T03:52:00.137Z,3.35
2018-08-12T03:54:30.317Z,2.93
2018-08-12T03:57:00.095Z,3.00
2018-08-12T03:59:30.086Z,2.97
2018-08-12T04:01:59.947Z,3.27
2018-08-12T04:04:29.627Z,2.87
2018-08-12T04:06:59.507Z,3.17
2018-08-12T04:09:29.453Z,3.40
2018-08-12T04:11:59.142Z,3.20
2018-08-12T04:14:30.145Z,2.97
2018-08-12T04:17:00.874Z,2.90
2018-08-12T04:19:31.698Z,3.23
2018-08-12T04:22:02.001Z,3.10
2018-08-12T04:24:31.776Z,2.70
2018-08-12T04:27:01.596Z,2.90
2018-08-12T04:29:31.435Z,2.90
2018-08-12T04:32:01.130Z,3.27
2018-08-12T04:34:31.117Z,3.27
2018-08-12T04:37:01.119Z,3.03
2018-08-12T04:39:31.111Z,3.30
2018-08-12T04:42:01.003Z,3.10
2018-08-12T04:44:31.027Z,2.90
2018-08-12T04:47:00.974Z,3.12
2018-08-12T04:49:30.899Z,2.70
2018-08-12T04:52:00.813Z,3.07
2018-08-12T04:54:30.746Z,3.30
2018-08-12T04:57:00.861Z,3.07
2018-08-12T04:59:30.832Z,3.00
2018-08-12T05:02:00.674Z,3.22
2018-08-12T05:04:30.482Z,3.23
2018-08-12T05:07:00.272Z,2.80
2018-08-12T05:09:29.945Z,2.90
2018-08-12T05:11:59.935Z,2.83
2018-08-12T05:14:29.877Z,3.23
2018-08-12T05:16:59.717Z,2.80
2018-08-12T05:19:29.709Z,3.03
2018-08-12T05:21:59.746Z,3.50
2018-08-12T05:24:29.873Z,3.00
2018-08-12T05:26:59.778Z,3.10
2018-08-12T05:29:29.717Z,3.07
2018-08-12T05:31:59.677Z,2.83
2018-08-12T05:34:29.513Z,2.95
2018-08-12T05:36:59.293Z,2.77
2018-08-12T05:39:29.097Z,2.80
2018-08-12T05:41:59.099Z,2.77
2018-08-12T05:44:28.971Z,2.40
2018-08-12T05:46:58.897Z,2.27
2018-08-12T05:49:28.758Z,2.40
2018-08-12T05:51:58.643Z,2.65
2018-08-12T05:54:28.393Z,2.50
2018-08-12T05:56:58.342Z,2.40
2018-08-12T05:59:28.166Z,2.20
2018-08-12T06:01:58.323Z,2.50
2018-08-12T06:04:34.979Z,2.20
2018-08-12T06:07:04.967Z,2.00
2018-08-12T06:09:34.734Z,2.15
2018-08-12T06:12:04.718Z,1.90
2018-08-12T06:14:34.648Z,1.70
2018-08-12T06:17:04.509Z,1.80
2018-08-12T06:19:34.369Z,2.20
2018-08-12T06:22:04.715Z,2.53
2018-08-12T06:24:34.759Z,2.30
2018-08-12T06:27:04.697Z,1.80
2018-08-12T06:29:35.088Z,1.60
2018-08-12T06:32:05.378Z,1.77
2018-08-12T06:34:35.376Z,1.70
2018-08-12T06:37:05.567Z,1.43
2018-08-12T06:39:35.573Z,1.50
2018-08-12T06:42:05.742Z,1.50
2018-08-12T06:44:35.662Z,1.70
2018-08-12T06:47:05.420Z,1.60
2018-08-12T06:49:35.382Z,1.50
2018-08-12T06:52:11.876Z,2.03
2018-08-12T06:54:42.207Z,1.60
2018-08-12T06:57:12.125Z,2.10
2018-08-12T06:59:42.112Z,1.70
2018-08-12T07:02:12.808Z,1.50
2018-08-12T07:04:42.603Z,1.50
2018-08-12T07:07:12.539Z,2.03
2018-08-12T07:09:42.422Z,4.70
2018-08-12T07:12:12.756Z,2.65
2018-08-12T07:14:42.799Z,1.30
2018-08-12T07:17:13.262Z,1.30
2018-08-12T07:19:43.187Z,1.60
2018-08-12T07:22:13.427Z,1.30
2018-08-12T07:24:43.617Z,1.60
2018-08-12T07:27:13.484Z,1.70
2018-08-12T07:29:43.334Z,1.60
2018-08-12T07:32:13.251Z,1.30
2018-08-12T07:34:43.187Z,1.60
2018-08-12T07:37:13.167Z,1.50
2018-08-12T07:39:43.674Z,1.67
2018-08-12T07:42:14.793Z,1.87
2018-08-12T07:44:44.828Z,1.50
2018-08-12T07:47:14.853Z,1.90
2018-08-12T07:49:44.992Z,1.60
2018-08-12T07:52:14.940Z,2.03
2018-08-12T07:54:44.850Z,2.27
2018-08-12T07:57:15.309Z,3.67
2018-08-12T07:59:45.459Z,3.13
2018-08-12T08:02:15.548Z,2.52
2018-08-12T08:04:45.827Z,1.97
2018-08-12T08:07:15.863Z,1.70
2018-08-12T08:09:45.694Z,1.20
2018-08-12T08:12:15.659Z,1.60
2018-08-12T08:14:45.748Z,1.60
2018-08-12T08:17:15.782Z,1.40
2018-08-12T08:19:45.978Z,1.57
2018-08-12T08:22:18.874Z,1.60
2018-08-12T08:24:49.032Z,2.00
2018-08-12T08:27:18.989Z,1.70
2018-08-12T08:29:49.148Z,1.70
2018-08-12T08:32:19.346Z,1.40
2018-08-12T08:34:52.063Z,1.90
2018-08-12T08:37:21.964Z,1.60
2018-08-12T08:39:52.057Z,1.80
2018-08-12T08:42:21.957Z,3.30
2018-08-12T08:44:51.969Z,1.63
2018-08-12T08:47:22.081Z,1.52
2018-08-12T08:49:52.155Z,1.50
2018-08-12T08:52:22.848Z,1.30
2018-08-12T08:54:54.014Z,1.32
2018-08-12T08:57:24.873Z,1.30
2018-08-12T08:59:55.938Z,1.17
2018-08-12T09:02:25.875Z,1.27
2018-08-12T09:04:55.795Z,1.87
2018-08-12T09:07:26.199Z,1.30
2018-08-12T09:09:56.347Z,1.30
2018-08-12T09:12:26.589Z,1.07
2018-08-12T09:14:56.697Z,1.37
2018-08-12T09:17:26.710Z,1.33
2018-08-12T09:19:56.825Z,1.50
2018-08-12T09:22:27.152Z,1.13
2018-08-12T09:24:57.392Z,1.77
2018-08-12T09:27:27.459Z,1.40
2018-08-12T09:29:57.508Z,1.30
2018-08-12T09:32:27.944Z,1.10
2018-08-12T09:34:58.090Z,1.40
2018-08-12T09:37:28.120Z,1.53
2018-08-12T09:39:58.313Z,1.40
2018-08-12T09:42:28.352Z,1.27
2018-08-12T09:44:58.437Z,1.10
2018-08-12T09:47:28.503Z,1.83
2018-08-12T09:49:58.473Z,1.17
2018-08-12T09:52:28.468Z,1.40
2018-08-12T09:54:58.568Z,1.33
2018-08-12T09:57:28.687Z,1.43
2018-08-12T09:59:58.740Z,1.30
2018-08-12T10:02:28.844Z,1.30
2018-08-12T10:04:59.159Z,1.67
2018-08-12T10:07:29.479Z,1.10
2018-08-12T10:09:59.514Z,1.27
2018-08-12T10:12:36.024Z,1.10
2018-08-12T10:15:07.274Z,1.27
2018-08-12T10:17:38.874Z,1.30
2018-08-12T10:20:09.612Z,1.40
2018-08-12T10:22:39.904Z,1.20
2018-08-12T10:25:10.523Z,1.27
2018-08-12T10:27:40.593Z,1.27
2018-08-12T10:30:13.051Z,1.20
2018-08-12T10:32:43.238Z,1.33
2018-08-12T10:35:14.905Z,1.20
2018-08-12T10:37:45.212Z,1.30
2018-08-12T10:40:18.493Z,1.10
2018-08-12T10:42:49.735Z,1.20
2018-08-12T10:45:19.774Z,1.12
2018-08-12T10:47:49.843Z,1.00
2018-08-12T10:50:20.805Z,1.10
2018-08-12T10:52:51.287Z,1.07
2018-08-12T10:55:22.804Z,1.10
2018-08-12T10:57:52.976Z,1.10
2018-08-12T11:00:27.577Z,1.10
2018-08-12T11:02:57.845Z,1.00
2018-08-12T11:05:28.303Z,1.50
2018-08-12T11:07:59.327Z,1.00
2018-08-12T11:10:30.310Z,1.47
2018-08-12T11:13:00.411Z,1.60
2018-08-12T11:15:30.569Z,1.10
2018-08-12T11:18:01.125Z,2.10
2018-08-12T11:20:31.762Z,1.60
2018-08-12T11:23:01.998Z,1.00
2018-08-12T11:25:32.233Z,1.20
2018-08-12T11:28:02.261Z,1.27
2018-08-12T11:30:32.285Z,0.90
2018-08-12T11:33:03.293Z,1.20
2018-08-12T11:35:33.461Z,1.20
2018-08-12T11:38:09.909Z,1.10
2018-08-12T11:40:40.691Z,1.17
2018-08-12T11:43:11.893Z,1.20
2018-08-12T11:45:42.678Z,1.60
2018-08-12T11:48:12.765Z,1.07
2018-08-12T11:50:46.845Z,0.97
2018-08-12T11:53:16.744Z,1.50
2018-08-12T11:55:46.985Z,1.40
2018-08-12T11:58:17.210Z,1.03
2018-08-12T12:00:47.504Z,1.27
2018-08-12T12:03:17.446Z,1.47
2018-08-12T12:05:47.475Z,2.50
2018-08-12T12:08:17.616Z,10.07
2018-08-12T12:10:47.914Z,1.80
2018-08-12T12:13:18.109Z,4.73
2018-08-12T12:15:48.314Z,0.90
2018-08-12T12:18:18.403Z,1.10
2018-08-12T12:20:48.739Z,1.20
2018-08-12T12:23:18.905Z,1.00
2018-08-12T12:25:48.935Z,1.12
2018-08-12T12:28:19.049Z,1.20
2018-08-12T12:30:49.579Z,1.00
2018-08-12T12:33:19.657Z,0.90
2018-08-12T12:35:49.663Z,5.40
2018-08-12T12:38:19.759Z,5.10
2018-08-12T12:40:56.438Z,2.00
2018-08-12T12:43:27.159Z,1.03
2018-08-12T12:45:57.666Z,2.00
2018-08-12T12:48:27.829Z,1.40
2018-08-12T12:50:57.910Z,0.90
2018-08-12T12:53:28.069Z,0.85
2018-08-12T12:55:58.040Z,1.73
2018-08-12T12:58:28.431Z,1.00
2018-08-12T13:00:58.584Z,1.10
2018-08-12T13:03:28.816Z,1.32
2018-08-12T13:05:59.101Z,1.10
2018-08-12T13:08:29.375Z,0.88
2018-08-12T13:10:59.472Z,0.97
2018-08-12T13:13:29.555Z,0.90
2018-08-12T13:15:59.780Z,1.10
2018-08-12T13:18:29.944Z,0.90
2018-08-12T13:20:59.913Z,0.90
2018-08-12T13:23:30.113Z,0.80
2018-08-12T13:26:00.195Z,1.00
2018-08-12T13:28:31.371Z,7.42
2018-08-12T13:31:02.442Z,3.47
2018-08-12T13:33:33.610Z,1.10
2018-08-12T13:36:03.809Z,1.90
2018-08-12T13:38:33.950Z,1.20
2018-08-12T13:41:04.235Z,0.87
2018-08-12T13:43:34.390Z,2.10
2018-08-12T13:46:04.449Z,1.33
2018-08-12T13:48:34.600Z,1.23
2018-08-12T13:51:04.823Z,2.20
2018-08-12T13:53:37.704Z,8.03
2018-08-12T13:56:07.741Z,5.03
2018-08-12T13:58:37.864Z,12.00
2018-08-12T14:01:07.935Z,1.00
2018-08-12T14:03:38.092Z,7.87
2018-08-12T14:06:08.352Z,3.20
2018-08-12T14:08:38.711Z,3.60
2018-08-12T14:11:08.840Z,3.30
2018-08-12T14:13:38.963Z,4.60
2018-08-12T14:16:08.932Z,2.33
2018-08-12T14:18:39.211Z,1.20
2018-08-12T14:21:09.375Z,2.58
2018-08-12T14:23:39.842Z,1.10
2018-08-12T14:26:09.859Z,1.37
2018-08-12T14:28:39.866Z,3.43
2018-08-12T14:31:09.896Z,4.30
2018-08-12T14:33:39.919Z,1.93
2018-08-12T14:36:10.046Z,1.00
2018-08-12T14:38:40.145Z,1.20
2018-08-12T14:41:10.128Z,1.37
2018-08-12T14:43:40.489Z,1.73
2018-08-12T14:46:10.889Z,1.17
2018-08-12T14:48:41.066Z,1.10
2018-08-12T14:51:11.073Z,1.00
2018-08-12T14:53:41.851Z,1.25
2018-08-12T14:56:12.791Z,1.10
2018-08-12T14:58:42.816Z,1.30
2018-08-12T15:01:12.921Z,1.60
2018-08-12T15:06:18.295Z,1.70
2018-08-12T15:08:49.132Z,1.33
2018-08-12T15:11:19.814Z,1.40
2018-08-12T15:13:50.085Z,1.40
2018-08-12T15:16:20.056Z,1.23
2018-08-12T15:18:50.224Z,1.43
2018-08-12T15:21:20.238Z,1.30
2018-08-12T15:23:50.495Z,1.43
2018-08-12T15:26:20.625Z,3.00
2018-08-12T15:28:50.862Z,1.50
2018-08-12T15:31:21.062Z,1.20
2018-08-12T15:33:51.042Z,1.50
2018-08-12T15:36:21.190Z,1.20
2018-08-12T15:38:51.616Z,1.20
2018-08-12T15:41:22.045Z,1.27
2018-08-12T15:43:52.346Z,1.17
2018-08-12T15:46:22.386Z,1.13
2018-08-12T15:48:52.757Z,1.22
2018-08-12T15:51:22.839Z,1.20
2018-08-12T15:53:53.117Z,1.37
2018-08-12T15:56:23.076Z,1.70
2018-08-12T15:58:53.311Z,1.10
2018-08-12T16:01:23.599Z,2.00
2018-08-12T16:03:53.785Z,1.42
2018-08-12T16:06:24.048Z,1.60
2018-08-12T16:08:54.266Z,1.15
2018-08-12T16:11:24.479Z,1.13
2018-08-12T16:13:54.746Z,1.40
2018-08-12T16:16:25.128Z,1.40
2018-08-12T16:18:55.189Z,1.67
2018-08-12T16:21:25.208Z,1.47
2018-08-12T16:23:55.671Z,1.47
2018-08-12T16:26:26.699Z,1.52
2018-08-12T16:28:57.656Z,1.70
2018-08-12T16:31:29.076Z,1.50
2018-08-12T16:34:02.234Z,1.45
2018-08-12T16:36:32.345Z,1.40
2018-08-12T16:39:02.737Z,1.70
2018-08-12T16:41:34.016Z,1.60
2018-08-12T16:44:04.195Z,1.70
2018-08-12T16:46:35.331Z,1.40
2018-08-12T16:49:05.470Z,1.52
2018-08-12T16:51:35.559Z,1.70
2018-08-12T16:54:06.021Z,2.10
2018-08-12T16:56:36.481Z,1.50
2018-08-12T16:59:06.755Z,1.77
2018-08-12T17:01:36.941Z,1.77
2018-08-12T17:04:07.231Z,1.72
2018-08-12T17:06:37.813Z,2.27
2018-08-12T17:09:11.698Z,1.53
2018-08-12T17:11:41.974Z,1.87
2018-08-12T17:14:12.244Z,1.80
2018-08-12T17:16:42.525Z,2.00
2018-08-12T17:19:12.938Z,2.00
2018-08-12T17:21:42.990Z,2.63
2018-08-12T17:24:13.230Z,2.00
2018-08-12T17:26:43.692Z,2.08
2018-08-12T17:29:13.828Z,1.90
2018-08-12T17:31:43.925Z,1.70
2018-08-12T17:34:14.016Z,2.00
2018-08-12T17:36:44.301Z,2.30
2018-08-12T17:39:14.246Z,2.60
2018-08-12T17:41:44.454Z,2.00
2018-08-12T17:44:15.203Z,1.80
2018-08-12T17:46:46.294Z,1.72
2018-08-12T17:49:16.181Z,1.90
2018-08-12T17:51:46.371Z,1.80
2018-08-12T17:54:16.922Z,1.90
2018-08-12T17:56:48.946Z,2.87
2018-08-12T17:59:19.371Z,2.13
2018-08-12T18:01:49.389Z,2.10
2018-08-12T18:04:19.456Z,2.73
2018-08-12T18:06:49.549Z,6.17
2018-08-12T18:09:19.575Z,7.28
2018-08-12T18:12:20.460Z,3.40
2018-08-12T18:14:51.225Z,2.62
2018-08-12T18:17:22.257Z,2.53
2018-08-12T18:19:53.410Z,2.20
2018-08-12T18:22:23.805Z,2.00
2018-08-12T18:24:54.132Z,2.10
2018-08-12T18:27:24.583Z,2.90
2018-08-12T18:29:54.631Z,2.40
2018-08-12T18:32:24.776Z,2.10
2018-08-12T18:34:54.693Z,2.10
2018-08-12T18:37:24.811Z,2.20
2018-08-12T18:39:55.041Z,2.50
2018-08-12T18:42:25.532Z,2.00
2018-08-12T18:44:55.428Z,1.87
2018-08-12T18:47:25.461Z,2.20
2018-08-12T18:49:56.100Z,1.98
2018-08-12T18:52:26.288Z,2.20
2018-08-12T18:54:56.641Z,2.10
2018-08-12T18:57:26.747Z,2.17
2018-08-12T18:59:57.081Z,2.60
2018-08-12T19:02:27.115Z,2.50
2018-08-12T19:04:57.318Z,2.40
2018-08-12T19:07:27.598Z,2.75
2018-08-12T19:09:58.223Z,3.00
2018-08-12T19:12:28.536Z,5.90
2018-08-12T19:14:58.702Z,4.63
2018-08-12T19:17:28.941Z,12.37
2018-08-12T19:19:59.089Z,32.00
2018-08-12T19:22:29.269Z,13.95
2018-08-12T19:24:59.358Z,9.30
2018-08-12T19:27:29.552Z,6.67
2018-08-12T19:29:59.639Z,8.20
2018-08-12T19:32:29.528Z,6.37
2018-08-12T19:34:59.604Z,6.20
2018-08-12T19:37:30.272Z,6.30
2018-08-12T19:40:01.492Z,6.63
2018-08-12T19:42:32.573Z,5.15
2018-08-12T19:45:02.880Z,5.40
2018-08-12T19:47:34.036Z,5.53
2018-08-12T19:50:04.505Z,5.73
2018-08-12T19:52:34.769Z,5.10
2018-08-12T19:55:05.630Z,5.77
2018-08-12T19:57:35.979Z,6.73
2018-08-12T20:00:09.150Z,5.70
2018-08-12T20:02:39.377Z,6.83
2018-08-12T20:05:09.619Z,7.30
2018-08-12T20:07:39.807Z,7.40
2018-08-12T20:10:11.152Z,6.30
2018-08-12T20:12:41.376Z,6.10
2018-08-12T20:15:12.250Z,18.17
2018-08-12T20:17:42.546Z,18.73
2018-08-12T20:20:13.877Z,9.13
2018-08-12T20:22:44.028Z,6.80
2018-08-12T20:25:14.109Z,9.43
2018-08-12T20:27:44.410Z,10.08
2018-08-12T20:30:14.508Z,7.97
2018-08-12T20:32:44.850Z,8.30
2018-08-12T20:35:14.766Z,7.28
2018-08-12T20:37:45.159Z,6.10
2018-08-12T20:40:15.170Z,6.40
2018-08-12T20:42:45.355Z,6.97
2018-08-12T20:45:15.416Z,5.75
2018-08-12T20:47:45.816Z,6.03
2018-08-12T20:50:16.071Z,4.60
2018-08-12T20:52:46.167Z,5.27
2018-08-12T20:55:16.372Z,6.03
2018-08-12T20:57:46.592Z,4.53
2018-08-12T21:00:16.756Z,4.50
2018-08-12T21:02:46.900Z,3.87
2018-08-12T21:05:16.755Z,4.40
2018-08-12T21:07:46.734Z,4.77
2018-08-12T21:10:17.232Z,4.60
2018-08-12T21:12:48.341Z,3.90
2018-08-12T21:15:19.457Z,3.97
2018-08-12T21:17:49.734Z,4.10
2018-08-12T21:20:19.729Z,5.87
2018-08-12T21:22:50.016Z,7.67
2018-08-12T21:25:20.057Z,5.90
2018-08-12T21:27:50.375Z,5.93
2018-08-12T21:30:20.604Z,4.70
2018-08-12T21:32:50.765Z,8.97
2018-08-12T21:35:21.680Z,13.13
2018-08-12T21:37:51.841Z,9.13
2018-08-12T21:40:21.724Z,6.90
2018-08-12T21:42:51.823Z,6.57
2018-08-12T21:45:22.122Z,7.23
2018-08-12T21:47:52.252Z,6.22
2018-08-12T21:50:22.407Z,6.90
2018-08-12T21:52:52.607Z,7.10
2018-08-12T21:55:22.707Z,6.22
2018-08-12T21:57:53.020Z,6.50
2018-08-12T22:00:23.190Z,5.65
2018-08-12T22:02:53.622Z,5.62
2018-08-12T22:05:23.651Z,5.40
2018-08-12T22:07:53.692Z,4.78
2018-08-12T22:10:23.827Z,5.60
2018-08-12T22:13:00.732Z,4.83
2018-08-12T22:15:30.941Z,5.33
2018-08-12T22:18:01.003Z,5.20
2018-08-12T22:20:31.011Z,5.33
2018-08-12T22:23:01.056Z,4.40
2018-08-12T22:25:31.098Z,4.45
2018-08-12T22:28:01.201Z,4.53
2018-08-12T22:30:31.276Z,5.00
2018-08-12T22:33:01.521Z,4.50
2018-08-12T22:35:31.426Z,4.00
2018-08-12T22:38:01.580Z,3.83
2018-08-12T22:40:31.992Z,3.77
2018-08-12T22:43:01.981Z,3.70
2018-08-12T22:45:32.001Z,4.33
2018-08-12T22:48:02.646Z,4.47
2018-08-12T22:50:32.483Z,4.00
2018-08-12T22:53:02.622Z,3.80
2018-08-12T22:55:32.627Z,3.63
2018-08-12T22:58:03.637Z,3.65
2018-08-12T23:00:34.670Z,3.70
2018-08-12T23:03:06.840Z,4.13
2018-08-12T23:05:37.121Z,3.50
2018-08-12T23:08:11.765Z,3.50
2018-08-12T23:10:41.828Z,3.30
2018-08-12T23:13:11.771Z,3.37
2018-08-12T23:16:25.926Z,3.20
2018-08-12T23:18:56.198Z,3.52
2018-08-12T23:21:26.062Z,3.30
2018-08-12T23:23:56.041Z,3.50
2018-08-12T23:26:26.153Z,3.47
2018-08-12T23:28:56.052Z,2.85
2018-08-12T23:31:25.998Z,3.27
2018-08-12T23:33:56.021Z,3.20
2018-08-12T23:36:26.136Z,3.20
2018-08-12T23:38:56.007Z,3.00
2018-08-12T23:41:25.862Z,2.80
2018-08-12T23:43:55.753Z,3.07
2018-08-12T23:46:26.673Z,2.98
2018-08-12T23:50:50.671Z,2.73
2018-08-12T23:53:20.731Z,3.00
2018-08-12T23:55:50.826Z,2.90
2018-08-12T23:58:21.033Z,2.80
